sensor_id;sensor_type;location;lat;lon;timestamp;temperature;humidity
25582;DHT22;13462;50.764;4.332;2023-09-19T00:01:41;15.30;99.90
25582;DHT22;13462;50.764;4.332;2023-09-19T00:04:09;15.30;99.90
25582;DHT22;13462;50.764;4.332;2023-09-19T00:06:36;15.30;99.90
25582;DHT22;13462;50.764;4.332;2023-09-19T00:09:03;15.30;99.90
25582;DHT22;13462;50.764;4.332;2023-09-19T00:11:29;15.30;99.90
25582;DHT22;13462;50.764;4.332;2023-09-19T00:13:54;15.30;99.90
25582;DHT22;13462;50.764;4.332;2023-09-19T00:16:20;15.20;99.90
25582;DHT22;13462;50.764;4.332;2023-09-19T00:18:46;15.20;99.90
25582;DHT22;13462;50.764;4.332;2023-09-19T00:21:12;15.20;99.90
25582;DHT22;13462;50.764;4.332;2023-09-19T00:23:38;15.20;99.90
25582;DHT22;13462;50.764;4.332;2023-09-19T00:26:06;15.20;99.90
25582;DHT22;13462;50.764;4.332;2023-09-19T00:28:32;15.20;99.90
25582;DHT22;13462;50.764;4.332;2023-09-19T00:30:57;15.20;99.90
25582;DHT22;13462;50.764;4.332;2023-09-19T00:33:27;15.20;99.90
25582;DHT22;13462;50.764;4.332;2023-09-19T00:35:55;15.20;99.90
25582;DHT22;13462;50.764;4.332;2023-09-19T00:38:22;15.10;99.90
25582;DHT22;13462;50.764;4.332;2023-09-19T00:40:49;15.10;99.90
25582;DHT22;13462;50.764;4.332;2023-09-19T00:43:15;15.20;99.90
25582;DHT22;13462;50.764;4.332;2023-09-19T00:45:43;15.10;99.90
25582;DHT22;13462;50.764;4.332;2023-09-19T00:48:10;15.10;99.90
25582;DHT22;13462;50.764;4.332;2023-09-19T00:50:37;15.10;99.90
25582;DHT22;13462;50.764;4.332;2023-09-19T00:53:08;15.10;99.90
25582;DHT22;13462;50.764;4.332;2023-09-19T00:55:38;15.10;99.90
25582;DHT22;13462;50.764;4.332;2023-09-19T00:58:04;15.10;99.90
25582;DHT22;13462;50.764;4.332;2023-09-19T01:00:33;15.10;99.90
25582;DHT22;13462;50.764;4.332;2023-09-19T01:03:02;15.00;99.90
25582;DHT22;13462;50.764;4.332;2023-09-19T01:05:28;15.00;99.90
25582;DHT22;13462;50.764;4.332;2023-09-19T01:07:55;14.90;99.90
25582;DHT22;13462;50.764;4.332;2023-09-19T01:10:21;15.00;99.90
25582;DHT22;13462;50.764;4.332;2023-09-19T01:18:25;14.90;99.90
25582;DHT22;13462;50.764;4.332;2023-09-19T01:21:03;14.90;99.90
25582;DHT22;13462;50.764;4.332;2023-09-19T01:31:37;14.70;99.90
25582;DHT22;13462;50.764;4.332;2023-09-19T01:34:05;14.70;99.90
25582;DHT22;13462;50.764;4.332;2023-09-19T01:36:34;14.70;99.90
25582;DHT22;13462;50.764;4.332;2023-09-19T01:39:04;14.70;99.90
25582;DHT22;13462;50.764;4.332;2023-09-19T01:41:41;14.70;99.90
25582;DHT22;13462;50.764;4.332;2023-09-19T01:44:13;14.80;99.90
25582;DHT22;13462;50.764;4.332;2023-09-19T01:46:44;14.80;99.90
25582;DHT22;13462;50.764;4.332;2023-09-19T01:49:22;14.90;99.90
25582;DHT22;13462;50.764;4.332;2023-09-19T01:52:10;14.80;99.90
25582;DHT22;13462;50.764;4.332;2023-09-19T01:54:53;14.70;99.90
25582;DHT22;13462;50.764;4.332;2023-09-19T02:00:07;14.70;99.90
25582;DHT22;13462;50.764;4.332;2023-09-19T02:02:42;14.70;99.90
25582;DHT22;13462;50.764;4.332;2023-09-19T02:05:10;14.70;99.90
25582;DHT22;13462;50.764;4.332;2023-09-19T02:07:36;14.70;99.90
25582;DHT22;13462;50.764;4.332;2023-09-19T02:10:06;14.60;99.90
25582;DHT22;13462;50.764;4.332;2023-09-19T02:12:33;14.60;99.90
25582;DHT22;13462;50.764;4.332;2023-09-19T02:15:00;14.60;99.90
25582;DHT22;13462;50.764;4.332;2023-09-19T02:17:26;14.60;99.90
25582;DHT22;13462;50.764;4.332;2023-09-19T02:19:53;14.70;99.90
25582;DHT22;13462;50.764;4.332;2023-09-19T02:22:19;14.60;99.90
25582;DHT22;13462;50.764;4.332;2023-09-19T02:24:44;14.60;99.90
25582;DHT22;13462;50.764;4.332;2023-09-19T02:27:11;14.60;99.90
25582;DHT22;13462;50.764;4.332;2023-09-19T02:29:39;14.70;99.90
25582;DHT22;13462;50.764;4.332;2023-09-19T02:32:06;14.70;99.90
25582;DHT22;13462;50.764;4.332;2023-09-19T02:34:32;14.70;99.90
25582;DHT22;13462;50.764;4.332;2023-09-19T02:37:02;14.80;99.90
25582;DHT22;13462;50.764;4.332;2023-09-19T02:39:30;14.80;99.90
25582;DHT22;13462;50.764;4.332;2023-09-19T02:41:57;14.80;99.90
25582;DHT22;13462;50.764;4.332;2023-09-19T02:44:22;14.90;99.90
25582;DHT22;13462;50.764;4.332;2023-09-19T02:46:49;14.90;99.90
25582;DHT22;13462;50.764;4.332;2023-09-19T02:49:15;14.90;99.90
25582;DHT22;13462;50.764;4.332;2023-09-19T02:51:40;14.90;99.90
25582;DHT22;13462;50.764;4.332;2023-09-19T02:54:07;14.90;99.90
25582;DHT22;13462;50.764;4.332;2023-09-19T02:56:33;15.00;99.90
25582;DHT22;13462;50.764;4.332;2023-09-19T02:58:58;14.80;99.90
25582;DHT22;13462;50.764;4.332;2023-09-19T03:01:26;14.90;99.90
25582;DHT22;13462;50.764;4.332;2023-09-19T03:03:53;14.80;99.90
25582;DHT22;13462;50.764;4.332;2023-09-19T03:06:19;14.70;99.90
25582;DHT22;13462;50.764;4.332;2023-09-19T03:08:45;14.70;99.90
25582;DHT22;13462;50.764;4.332;2023-09-19T03:11:12;14.70;99.90
25582;DHT22;13462;50.764;4.332;2023-09-19T03:13:40;14.70;99.90
25582;DHT22;13462;50.764;4.332;2023-09-19T03:16:07;14.60;99.90
25582;DHT22;13462;50.764;4.332;2023-09-19T03:18:36;14.50;99.90
25582;DHT22;13462;50.764;4.332;2023-09-19T03:21:01;14.70;99.90
25582;DHT22;13462;50.764;4.332;2023-09-19T03:23:28;14.60;99.90
25582;DHT22;13462;50.764;4.332;2023-09-19T03:25:54;14.50;99.90
25582;DHT22;13462;50.764;4.332;2023-09-19T03:28:21;14.60;99.90
25582;DHT22;13462;50.764;4.332;2023-09-19T03:31:00;14.60;99.90
25582;DHT22;13462;50.764;4.332;2023-09-19T03:33:26;14.70;99.90
25582;DHT22;13462;50.764;4.332;2023-09-19T03:35:55;14.70;99.90
25582;DHT22;13462;50.764;4.332;2023-09-19T03:38:23;14.80;99.90
25582;DHT22;13462;50.764;4.332;2023-09-19T03:40:49;14.80;99.90
25582;DHT22;13462;50.764;4.332;2023-09-19T03:43:15;14.70;99.90
25582;DHT22;13462;50.764;4.332;2023-09-19T03:45:40;14.60;99.90
25582;DHT22;13462;50.764;4.332;2023-09-19T03:48:09;14.70;99.90
25582;DHT22;13462;50.764;4.332;2023-09-19T03:50:35;14.60;99.90
25582;DHT22;13462;50.764;4.332;2023-09-19T03:53:01;14.60;99.90
25582;DHT22;13462;50.764;4.332;2023-09-19T03:55:27;14.60;99.90
25582;DHT22;13462;50.764;4.332;2023-09-19T03:57:53;14.50;99.90
25582;DHT22;13462;50.764;4.332;2023-09-19T04:00:19;14.50;99.90
25582;DHT22;13462;50.764;4.332;2023-09-19T04:02:48;14.40;99.90
25582;DHT22;13462;50.764;4.332;2023-09-19T04:05:13;14.30;99.90
25582;DHT22;13462;50.764;4.332;2023-09-19T04:07:39;14.20;99.90
25582;DHT22;13462;50.764;4.332;2023-09-19T04:10:05;14.40;99.90
25582;DHT22;13462;50.764;4.332;2023-09-19T04:12:31;14.30;99.90
25582;DHT22;13462;50.764;4.332;2023-09-19T04:14:57;14.30;99.90
25582;DHT22;13462;50.764;4.332;2023-09-19T04:17:23;14.40;99.90
25582;DHT22;13462;50.764;4.332;2023-09-19T04:19:49;14.30;99.90
25582;DHT22;13462;50.764;4.332;2023-09-19T04:22:14;14.30;99.90
25582;DHT22;13462;50.764;4.332;2023-09-19T04:24:40;14.50;99.90
25582;DHT22;13462;50.764;4.332;2023-09-19T04:27:05;14.50;99.90
25582;DHT22;13462;50.764;4.332;2023-09-19T04:29:32;14.40;99.90
25582;DHT22;13462;50.764;4.332;2023-09-19T04:31:58;14.40;99.90
25582;DHT22;13462;50.764;4.332;2023-09-19T04:34:23;14.40;99.90
25582;DHT22;13462;50.764;4.332;2023-09-19T04:36:49;14.40;99.90
25582;DHT22;13462;50.764;4.332;2023-09-19T04:39:15;14.30;99.90
25582;DHT22;13462;50.764;4.332;2023-09-19T04:41:42;14.30;99.90
25582;DHT22;13462;50.764;4.332;2023-09-19T04:44:07;14.30;99.90
25582;DHT22;13462;50.764;4.332;2023-09-19T04:46:36;14.30;99.90
25582;DHT22;13462;50.764;4.332;2023-09-19T04:49:02;14.30;99.90
25582;DHT22;13462;50.764;4.332;2023-09-19T04:51:30;14.30;99.90
25582;DHT22;13462;50.764;4.332;2023-09-19T04:54:00;14.30;99.90
25582;DHT22;13462;50.764;4.332;2023-09-19T04:56:25;14.20;99.90
25582;DHT22;13462;50.764;4.332;2023-09-19T04:58:51;14.10;99.90
25582;DHT22;13462;50.764;4.332;2023-09-19T05:01:16;14.20;99.90
25582;DHT22;13462;50.764;4.332;2023-09-19T05:03:42;14.10;99.90
25582;DHT22;13462;50.764;4.332;2023-09-19T05:06:10;14.00;99.90
25582;DHT22;13462;50.764;4.332;2023-09-19T05:08:35;14.10;99.90
25582;DHT22;13462;50.764;4.332;2023-09-19T05:11:04;14.00;99.90
25582;DHT22;13462;50.764;4.332;2023-09-19T05:13:29;14.00;99.90
25582;DHT22;13462;50.764;4.332;2023-09-19T05:16:00;14.00;99.90
25582;DHT22;13462;50.764;4.332;2023-09-19T05:18:27;14.10;99.90
25582;DHT22;13462;50.764;4.332;2023-09-19T05:20:52;14.00;99.90
25582;DHT22;13462;50.764;4.332;2023-09-19T05:23:20;14.00;99.90
25582;DHT22;13462;50.764;4.332;2023-09-19T05:25:46;14.10;99.90
25582;DHT22;13462;50.764;4.332;2023-09-19T05:28:12;14.10;99.90
25582;DHT22;13462;50.764;4.332;2023-09-19T05:30:40;14.10;99.90
25582;DHT22;13462;50.764;4.332;2023-09-19T05:33:08;14.10;99.90
25582;DHT22;13462;50.764;4.332;2023-09-19T05:35:34;14.10;99.90
25582;DHT22;13462;50.764;4.332;2023-09-19T05:38:03;14.10;99.90
25582;DHT22;13462;50.764;4.332;2023-09-19T05:40:30;14.20;99.90
25582;DHT22;13462;50.764;4.332;2023-09-19T05:42:56;14.20;99.90
25582;DHT22;13462;50.764;4.332;2023-09-19T05:45:22;14.20;99.90
25582;DHT22;13462;50.764;4.332;2023-09-19T05:47:52;14.30;99.90
25582;DHT22;13462;50.764;4.332;2023-09-19T05:50:21;14.30;99.90
25582;DHT22;13462;50.764;4.332;2023-09-19T05:52:53;14.30;99.90
25582;DHT22;13462;50.764;4.332;2023-09-19T05:55:19;14.30;99.90
25582;DHT22;13462;50.764;4.332;2023-09-19T05:57:52;14.30;99.90
25582;DHT22;13462;50.764;4.332;2023-09-19T06:00:23;14.30;99.90
25582;DHT22;13462;50.764;4.332;2023-09-19T06:02:57;14.30;99.90
25582;DHT22;13462;50.764;4.332;2023-09-19T06:05:24;14.30;99.90
25582;DHT22;13462;50.764;4.332;2023-09-19T06:07:50;14.30;99.90
25582;DHT22;13462;50.764;4.332;2023-09-19T06:10:17;14.30;99.90
25582;DHT22;13462;50.764;4.332;2023-09-19T06:12:43;14.30;99.90
25582;DHT22;13462;50.764;4.332;2023-09-19T06:15:09;14.40;99.90
25582;DHT22;13462;50.764;4.332;2023-09-19T06:17:41;14.40;99.90
25582;DHT22;13462;50.764;4.332;2023-09-19T06:20:07;14.40;99.90
25582;DHT22;13462;50.764;4.332;2023-09-19T06:22:43;14.40;99.90
25582;DHT22;13462;50.764;4.332;2023-09-19T06:25:11;14.40;99.90
25582;DHT22;13462;50.764;4.332;2023-09-19T06:27:40;14.50;99.90
25582;DHT22;13462;50.764;4.332;2023-09-19T06:30:10;14.50;99.90
25582;DHT22;13462;50.764;4.332;2023-09-19T06:32:37;14.50;99.90
25582;DHT22;13462;50.764;4.332;2023-09-19T06:35:02;14.50;99.90
25582;DHT22;13462;50.764;4.332;2023-09-19T06:37:29;14.60;99.90
25582;DHT22;13462;50.764;4.332;2023-09-19T06:39:56;14.60;99.90
25582;DHT22;13462;50.764;4.332;2023-09-19T06:42:22;14.80;99.90
25582;DHT22;13462;50.764;4.332;2023-09-19T06:44:49;14.80;99.90
25582;DHT22;13462;50.764;4.332;2023-09-19T06:47:14;14.80;99.90
25582;DHT22;13462;50.764;4.332;2023-09-19T06:49:42;14.80;99.90
25582;DHT22;13462;50.764;4.332;2023-09-19T06:52:10;14.80;99.90
25582;DHT22;13462;50.764;4.332;2023-09-19T06:54:36;14.80;99.90
25582;DHT22;13462;50.764;4.332;2023-09-19T06:57:03;14.90;99.90
25582;DHT22;13462;50.764;4.332;2023-09-19T06:59:28;14.90;99.90
25582;DHT22;13462;50.764;4.332;2023-09-19T07:01:54;15.00;99.90
25582;DHT22;13462;50.764;4.332;2023-09-19T07:04:20;15.10;99.90
25582;DHT22;13462;50.764;4.332;2023-09-19T07:06:52;15.20;99.90
25582;DHT22;13462;50.764;4.332;2023-09-19T07:09:18;15.20;99.90
25582;DHT22;13462;50.764;4.332;2023-09-19T07:11:47;15.30;99.90
25582;DHT22;13462;50.764;4.332;2023-09-19T07:14:13;15.40;99.90
25582;DHT22;13462;50.764;4.332;2023-09-19T07:16:39;15.50;99.90
25582;DHT22;13462;50.764;4.332;2023-09-19T07:19:07;15.70;99.90
25582;DHT22;13462;50.764;4.332;2023-09-19T07:21:33;15.80;99.90
25582;DHT22;13462;50.764;4.332;2023-09-19T07:24:00;15.80;99.90
25582;DHT22;13462;50.764;4.332;2023-09-19T07:26:26;16.00;99.90
25582;DHT22;13462;50.764;4.332;2023-09-19T07:28:53;16.50;99.90
25582;DHT22;13462;50.764;4.332;2023-09-19T07:31:19;17.20;99.90
25582;DHT22;13462;50.764;4.332;2023-09-19T07:33:44;17.80;99.90
25582;DHT22;13462;50.764;4.332;2023-09-19T07:36:11;18.40;99.90
25582;DHT22;13462;50.764;4.332;2023-09-19T07:38:39;18.40;99.90
25582;DHT22;13462;50.764;4.332;2023-09-19T07:41:05;18.10;99.90
25582;DHT22;13462;50.764;4.332;2023-09-19T07:43:31;18.30;99.90
25582;DHT22;13462;50.764;4.332;2023-09-19T07:45:57;18.60;99.90
25582;DHT22;13462;50.764;4.332;2023-09-19T07:48:26;18.70;99.90
25582;DHT22;13462;50.764;4.332;2023-09-19T07:50:51;18.60;99.90
25582;DHT22;13462;50.764;4.332;2023-09-19T07:53:17;18.50;99.90
25582;DHT22;13462;50.764;4.332;2023-09-19T07:55:43;18.90;99.90
25582;DHT22;13462;50.764;4.332;2023-09-19T07:58:13;19.10;99.90
25582;DHT22;13462;50.764;4.332;2023-09-19T08:00:39;19.60;99.90
25582;DHT22;13462;50.764;4.332;2023-09-19T08:03:04;20.00;99.90
25582;DHT22;13462;50.764;4.332;2023-09-19T08:05:31;20.10;99.90
25582;DHT22;13462;50.764;4.332;2023-09-19T08:07:58;19.90;99.90
25582;DHT22;13462;50.764;4.332;2023-09-19T08:10:24;19.50;99.90
25582;DHT22;13462;50.764;4.332;2023-09-19T08:12:53;19.70;99.90
25582;DHT22;13462;50.764;4.332;2023-09-19T08:15:23;19.50;99.90
25582;DHT22;13462;50.764;4.332;2023-09-19T08:17:49;19.70;99.90
25582;DHT22;13462;50.764;4.332;2023-09-19T08:20:15;19.60;99.90
25582;DHT22;13462;50.764;4.332;2023-09-19T08:22:52;19.70;99.90
25582;DHT22;13462;50.764;4.332;2023-09-19T08:25:20;20.00;99.90
25582;DHT22;13462;50.764;4.332;2023-09-19T08:27:47;20.40;99.90
25582;DHT22;13462;50.764;4.332;2023-09-19T08:30:19;20.90;99.90
25582;DHT22;13462;50.764;4.332;2023-09-19T08:32:49;21.10;99.90
25582;DHT22;13462;50.764;4.332;2023-09-19T08:35:15;21.20;99.90
25582;DHT22;13462;50.764;4.332;2023-09-19T08:37:42;21.50;99.90
25582;DHT22;13462;50.764;4.332;2023-09-19T08:40:10;22.10;99.90
25582;DHT22;13462;50.764;4.332;2023-09-19T08:42:53;22.70;99.90
25582;DHT22;13462;50.764;4.332;2023-09-19T08:45:23;22.50;99.90
25582;DHT22;13462;50.764;4.332;2023-09-19T08:48:25;22.60;99.90
25582;DHT22;13462;50.764;4.332;2023-09-19T08:51:06;23.10;99.90
25582;DHT22;13462;50.764;4.332;2023-09-19T08:53:41;23.30;99.90
25582;DHT22;13462;50.764;4.332;2023-09-19T08:56:11;23.10;99.90
25582;DHT22;13462;50.764;4.332;2023-09-19T09:01:24;23.30;99.90
25582;DHT22;13462;50.764;4.332;2023-09-19T09:03:53;23.20;99.90
25582;DHT22;13462;50.764;4.332;2023-09-19T09:06:23;23.70;99.90
25582;DHT22;13462;50.764;4.332;2023-09-19T09:08:52;23.90;99.90
25582;DHT22;13462;50.764;4.332;2023-09-19T09:11:18;23.30;99.90
25582;DHT22;13462;50.764;4.332;2023-09-19T09:13:45;22.50;99.90
25582;DHT22;13462;50.764;4.332;2023-09-19T09:16:12;22.10;99.90
25582;DHT22;13462;50.764;4.332;2023-09-19T09:18:39;22.20;99.90
25582;DHT22;13462;50.764;4.332;2023-09-19T09:21:06;22.70;99.90
25582;DHT22;13462;50.764;4.332;2023-09-19T09:23:31;22.70;99.90
25582;DHT22;13462;50.764;4.332;2023-09-19T09:25:58;22.70;99.90
25582;DHT22;13462;50.764;4.332;2023-09-19T09:28:33;22.40;99.90
25582;DHT22;13462;50.764;4.332;2023-09-19T09:31:00;22.40;99.90
25582;DHT22;13462;50.764;4.332;2023-09-19T09:33:34;22.30;99.90
25582;DHT22;13462;50.764;4.332;2023-09-19T09:36:01;22.80;99.90
25582;DHT22;13462;50.764;4.332;2023-09-19T09:38:29;22.50;99.90
25582;DHT22;13462;50.764;4.332;2023-09-19T09:40:59;21.50;99.90
25582;DHT22;13462;50.764;4.332;2023-09-19T09:43:47;21.80;99.90
25582;DHT22;13462;50.764;4.332;2023-09-19T09:46:16;21.70;99.90
25582;DHT22;13462;50.764;4.332;2023-09-19T09:48:55;21.30;99.90
25582;DHT22;13462;50.764;4.332;2023-09-19T09:51:43;20.60;99.90
25582;DHT22;13462;50.764;4.332;2023-09-19T09:54:15;20.00;99.90
25582;DHT22;13462;50.764;4.332;2023-09-19T09:57:00;19.80;99.90
25582;DHT22;13462;50.764;4.332;2023-09-19T10:02:20;19.50;99.90
25582;DHT22;13462;50.764;4.332;2023-09-19T10:04:53;19.50;99.90
25582;DHT22;13462;50.764;4.332;2023-09-19T10:07:51;19.70;99.90
25582;DHT22;13462;50.764;4.332;2023-09-19T10:10:37;19.80;99.90
25582;DHT22;13462;50.764;4.332;2023-09-19T10:13:26;20.30;99.90
25582;DHT22;13462;50.764;4.332;2023-09-19T10:15:55;20.80;99.90
25582;DHT22;13462;50.764;4.332;2023-09-19T10:18:26;21.20;99.90
25582;DHT22;13462;50.764;4.332;2023-09-19T10:20:53;21.50;99.90
25582;DHT22;13462;50.764;4.332;2023-09-19T10:23:21;21.90;99.90
25582;DHT22;13462;50.764;4.332;2023-09-19T10:25:52;22.30;99.90
25582;DHT22;13462;50.764;4.332;2023-09-19T10:28:18;22.40;99.90
25582;DHT22;13462;50.764;4.332;2023-09-19T10:30:49;22.50;99.90
25582;DHT22;13462;50.764;4.332;2023-09-19T10:33:20;22.50;99.90
25582;DHT22;13462;50.764;4.332;2023-09-19T10:35:48;23.40;99.90
25582;DHT22;13462;50.764;4.332;2023-09-19T10:38:17;23.70;99.90
25582;DHT22;13462;50.764;4.332;2023-09-19T10:40:52;24.20;99.50
25582;DHT22;13462;50.764;4.332;2023-09-19T10:43:20;24.40;99.20
25582;DHT22;13462;50.764;4.332;2023-09-19T10:45:47;23.50;99.70
25582;DHT22;13462;50.764;4.332;2023-09-19T10:48:16;23.50;99.90
25582;DHT22;13462;50.764;4.332;2023-09-19T10:53:14;24.40;99.30
25582;DHT22;13462;50.764;4.332;2023-09-19T10:55:41;24.50;98.40
25582;DHT22;13462;50.764;4.332;2023-09-19T10:58:27;24.00;98.60
25582;DHT22;13462;50.764;4.332;2023-09-19T11:01:00;24.10;99.60
25582;DHT22;13462;50.764;4.332;2023-09-19T11:03:33;24.60;97.90
25582;DHT22;13462;50.764;4.332;2023-09-19T11:06:04;25.30;96.70
25582;DHT22;13462;50.764;4.332;2023-09-19T11:08:50;24.90;96.90
25582;DHT22;13462;50.764;4.332;2023-09-19T11:14:30;24.90;97.80
25582;DHT22;13462;50.764;4.332;2023-09-19T11:30:43;24.10;98.60
25582;DHT22;13462;50.764;4.332;2023-09-19T11:43:46;22.80;99.90
25582;DHT22;13462;50.764;4.332;2023-09-19T11:46:12;23.00;99.90
25582;DHT22;13462;50.764;4.332;2023-09-19T11:48:42;22.40;99.90
25582;DHT22;13462;50.764;4.332;2023-09-19T11:51:11;21.70;99.90
25582;DHT22;13462;50.764;4.332;2023-09-19T11:53:48;21.60;99.90
25582;DHT22;13462;50.764;4.332;2023-09-19T11:56:16;21.60;99.90
25582;DHT22;13462;50.764;4.332;2023-09-19T11:58:46;21.60;99.90
25582;DHT22;13462;50.764;4.332;2023-09-19T12:01:21;21.20;99.90
25582;DHT22;13462;50.764;4.332;2023-09-19T12:03:52;21.20;99.90
25582;DHT22;13462;50.764;4.332;2023-09-19T12:06:18;21.40;99.90
25582;DHT22;13462;50.764;4.332;2023-09-19T12:08:44;21.40;99.90
25582;DHT22;13462;50.764;4.332;2023-09-19T12:11:16;21.40;99.90
25582;DHT22;13462;50.764;4.332;2023-09-19T12:13:45;21.00;99.90
25582;DHT22;13462;50.764;4.332;2023-09-19T12:16:21;20.50;99.90
25582;DHT22;13462;50.764;4.332;2023-09-19T12:18:48;20.20;99.90
25582;DHT22;13462;50.764;4.332;2023-09-19T12:26:37;19.80;99.90
25582;DHT22;13462;50.764;4.332;2023-09-19T12:29:03;20.00;99.90
25582;DHT22;13462;50.764;4.332;2023-09-19T12:31:31;20.60;99.90
25582;DHT22;13462;50.764;4.332;2023-09-19T12:34:01;21.10;99.90
25582;DHT22;13462;50.764;4.332;2023-09-19T12:36:27;21.40;99.90
25582;DHT22;13462;50.764;4.332;2023-09-19T12:38:56;21.40;99.90
25582;DHT22;13462;50.764;4.332;2023-09-19T12:41:26;21.10;99.90
25582;DHT22;13462;50.764;4.332;2023-09-19T12:43:53;20.70;99.90
25582;DHT22;13462;50.764;4.332;2023-09-19T12:46:22;20.30;99.90
25582;DHT22;13462;50.764;4.332;2023-09-19T12:49:17;20.30;99.90
25582;DHT22;13462;50.764;4.332;2023-09-19T12:51:43;20.30;99.90
25582;DHT22;13462;50.764;4.332;2023-09-19T12:54:09;20.30;99.90
25582;DHT22;13462;50.764;4.332;2023-09-19T12:56:42;20.20;99.90
25582;DHT22;13462;50.764;4.332;2023-09-19T12:59:13;20.20;99.90
25582;DHT22;13462;50.764;4.332;2023-09-19T13:01:43;20.30;99.90
25582;DHT22;13462;50.764;4.332;2023-09-19T13:04:18;20.10;99.90
25582;DHT22;13462;50.764;4.332;2023-09-19T13:06:50;20.00;99.90
25582;DHT22;13462;50.764;4.332;2023-09-19T13:09:19;19.80;99.90
25582;DHT22;13462;50.764;4.332;2023-09-19T13:11:53;19.80;99.90
25582;DHT22;13462;50.764;4.332;2023-09-19T13:17:02;19.60;99.90
25582;DHT22;13462;50.764;4.332;2023-09-19T13:19:48;19.60;99.90
25582;DHT22;13462;50.764;4.332;2023-09-19T13:22:43;19.60;99.90
25582;DHT22;13462;50.764;4.332;2023-09-19T13:25:14;19.70;99.90
25582;DHT22;13462;50.764;4.332;2023-09-19T13:27:51;19.80;99.90
25582;DHT22;13462;50.764;4.332;2023-09-19T13:30:17;19.80;99.90
25582;DHT22;13462;50.764;4.332;2023-09-19T13:32:44;19.90;99.90
25582;DHT22;13462;50.764;4.332;2023-09-19T13:35:10;19.90;99.90
25582;DHT22;13462;50.764;4.332;2023-09-19T13:37:37;19.80;99.90
25582;DHT22;13462;50.764;4.332;2023-09-19T13:40:10;19.90;99.90
25582;DHT22;13462;50.764;4.332;2023-09-19T13:42:36;19.80;99.90
25582;DHT22;13462;50.764;4.332;2023-09-19T13:45:03;19.80;99.90
25582;DHT22;13462;50.764;4.332;2023-09-19T13:47:33;20.00;99.90
25582;DHT22;13462;50.764;4.332;2023-09-19T13:49:59;20.20;99.90
25582;DHT22;13462;50.764;4.332;2023-09-19T13:52:26;20.40;99.90
25582;DHT22;13462;50.764;4.332;2023-09-19T13:54:54;20.60;99.90
25582;DHT22;13462;50.764;4.332;2023-09-19T13:57:22;20.90;99.90
25582;DHT22;13462;50.764;4.332;2023-09-19T13:59:48;20.70;99.90
25582;DHT22;13462;50.764;4.332;2023-09-19T14:02:14;20.50;99.90
25582;DHT22;13462;50.764;4.332;2023-09-19T14:04:40;20.30;99.90
25582;DHT22;13462;50.764;4.332;2023-09-19T14:07:06;20.30;99.90
25582;DHT22;13462;50.764;4.332;2023-09-19T14:09:33;20.10;99.90
25582;DHT22;13462;50.764;4.332;2023-09-19T14:11:59;20.10;99.90
25582;DHT22;13462;50.764;4.332;2023-09-19T14:14:25;20.10;99.90
25582;DHT22;13462;50.764;4.332;2023-09-19T14:16:50;20.00;99.90
25582;DHT22;13462;50.764;4.332;2023-09-19T14:19:17;20.00;99.90
25582;DHT22;13462;50.764;4.332;2023-09-19T14:21:43;20.20;99.90
25582;DHT22;13462;50.764;4.332;2023-09-19T14:24:09;20.20;99.90
25582;DHT22;13462;50.764;4.332;2023-09-19T14:26:38;20.10;99.90
25582;DHT22;13462;50.764;4.332;2023-09-19T14:29:04;20.10;99.90
25582;DHT22;13462;50.764;4.332;2023-09-19T14:31:33;19.90;99.90
25582;DHT22;13462;50.764;4.332;2023-09-19T14:33:59;19.90;99.90
25582;DHT22;13462;50.764;4.332;2023-09-19T14:36:25;19.80;99.90
25582;DHT22;13462;50.764;4.332;2023-09-19T14:38:55;19.80;99.90
25582;DHT22;13462;50.764;4.332;2023-09-19T14:41:22;20.10;99.90
25582;DHT22;13462;50.764;4.332;2023-09-19T14:43:49;20.30;99.90
25582;DHT22;13462;50.764;4.332;2023-09-19T14:46:15;20.50;99.90
25582;DHT22;13462;50.764;4.332;2023-09-19T14:48:41;20.50;99.90
25582;DHT22;13462;50.764;4.332;2023-09-19T14:51:08;20.50;99.90
25582;DHT22;13462;50.764;4.332;2023-09-19T14:53:35;20.30;99.90
25582;DHT22;13462;50.764;4.332;2023-09-19T14:56:04;20.10;99.90
25582;DHT22;13462;50.764;4.332;2023-09-19T14:58:30;20.00;99.90
25582;DHT22;13462;50.764;4.332;2023-09-19T15:01:09;20.00;99.90
25582;DHT22;13462;50.764;4.332;2023-09-19T15:03:36;19.90;99.90
25582;DHT22;13462;50.764;4.332;2023-09-19T15:06:03;19.90;99.90
25582;DHT22;13462;50.764;4.332;2023-09-19T15:08:33;19.90;99.90
25582;DHT22;13462;50.764;4.332;2023-09-19T15:11:09;19.80;99.90
25582;DHT22;13462;50.764;4.332;2023-09-19T15:13:35;19.70;99.90
25582;DHT22;13462;50.764;4.332;2023-09-19T15:16:03;19.50;99.90
25582;DHT22;13462;50.764;4.332;2023-09-19T15:18:29;19.30;99.90
25582;DHT22;13462;50.764;4.332;2023-09-19T15:21:05;19.30;99.90
25582;DHT22;13462;50.764;4.332;2023-09-19T15:23:32;19.30;99.90
25582;DHT22;13462;50.764;4.332;2023-09-19T15:26:00;19.40;99.90
25582;DHT22;13462;50.764;4.332;2023-09-19T15:28:27;19.40;99.90
25582;DHT22;13462;50.764;4.332;2023-09-19T15:31:01;19.30;99.90
25582;DHT22;13462;50.764;4.332;2023-09-19T15:33:27;19.20;99.90
25582;DHT22;13462;50.764;4.332;2023-09-19T15:38:30;19.10;99.90
25582;DHT22;13462;50.764;4.332;2023-09-19T15:40:57;19.20;99.90
25582;DHT22;13462;50.764;4.332;2023-09-19T15:43:23;19.20;99.90
25582;DHT22;13462;50.764;4.332;2023-09-19T15:45:49;19.30;99.90
25582;DHT22;13462;50.764;4.332;2023-09-19T15:48:15;19.30;99.90
25582;DHT22;13462;50.764;4.332;2023-09-19T15:50:42;19.30;99.90
25582;DHT22;13462;50.764;4.332;2023-09-19T15:53:10;19.20;99.90
25582;DHT22;13462;50.764;4.332;2023-09-19T15:55:39;19.30;99.90
25582;DHT22;13462;50.764;4.332;2023-09-19T15:58:05;19.30;99.90
25582;DHT22;13462;50.764;4.332;2023-09-19T16:00:35;19.20;99.90
25582;DHT22;13462;50.764;4.332;2023-09-19T16:03:05;19.20;99.90
25582;DHT22;13462;50.764;4.332;2023-09-19T16:05:37;19.20;99.90
25582;DHT22;13462;50.764;4.332;2023-09-19T16:08:05;19.30;99.90
25582;DHT22;13462;50.764;4.332;2023-09-19T16:10:35;19.40;99.90
25582;DHT22;13462;50.764;4.332;2023-09-19T16:13:01;19.40;99.90
25582;DHT22;13462;50.764;4.332;2023-09-19T16:15:27;19.30;99.90
25582;DHT22;13462;50.764;4.332;2023-09-19T16:17:53;19.10;99.90
25582;DHT22;13462;50.764;4.332;2023-09-19T16:20:19;19.10;99.90
25582;DHT22;13462;50.764;4.332;2023-09-19T16:22:46;19.10;99.90
25582;DHT22;13462;50.764;4.332;2023-09-19T16:25:12;19.00;99.90
25582;DHT22;13462;50.764;4.332;2023-09-19T16:27:37;19.10;99.90
25582;DHT22;13462;50.764;4.332;2023-09-19T16:30:03;19.10;99.90
25582;DHT22;13462;50.764;4.332;2023-09-19T16:32:30;19.00;99.90
25582;DHT22;13462;50.764;4.332;2023-09-19T16:34:56;19.00;99.90
25582;DHT22;13462;50.764;4.332;2023-09-19T16:37:21;18.90;99.90
25582;DHT22;13462;50.764;4.332;2023-09-19T16:39:48;18.90;99.90
25582;DHT22;13462;50.764;4.332;2023-09-19T16:42:14;18.80;99.90